createdAt,value
2022-12-27T00:01:38.381Z,2.05
2022-12-27T00:04:05.504Z,1.90
2022-12-27T00:06:32.330Z,1.13
2022-12-27T00:09:01.744Z,1.98
2022-12-27T00:11:30.127Z,3.40
2022-12-27T00:14:01.316Z,3.38
2022-12-27T00:16:31.203Z,1.77
2022-12-27T00:19:01.098Z,1.70
2022-12-27T00:21:28.139Z,2.47
2022-12-27T00:24:00.587Z,3.38
2022-12-27T00:26:33.841Z,3.33
2022-12-27T00:29:03.390Z,2.17
2022-12-27T00:31:31.685Z,1.73
2022-12-27T00:34:01.772Z,1.98
2022-12-27T00:36:34.504Z,3.65
2022-12-27T00:39:06.546Z,3.47
2022-12-27T00:44:02.470Z,1.58
2022-12-27T00:46:29.236Z,6.47
2022-12-27T00:48:55.947Z,1.27
2022-12-27T00:51:28.401Z,1.85
2022-12-27T00:54:00.934Z,2.60
2022-12-27T00:56:31.208Z,1.58
2022-12-27T00:59:04.411Z,7.00
2022-12-27T01:01:36.065Z,2.65
2022-12-27T01:04:08.355Z,2.50
2022-12-27T01:06:38.169Z,6.65
2022-12-27T01:09:07.400Z,1.15
2022-12-27T01:11:34.426Z,2.92
2022-12-27T01:14:05.017Z,3.55
2022-12-27T01:16:32.215Z,1.42
2022-12-27T01:19:01.991Z,2.50
2022-12-27T01:21:33.331Z,2.00
2022-12-27T01:24:00.140Z,2.85
2022-12-27T01:26:29.722Z,2.80
2022-12-27T01:28:58.718Z,4.22
2022-12-27T01:31:28.280Z,2.28
2022-12-27T01:34:02.509Z,2.05
2022-12-27T01:36:33.752Z,2.00
2022-12-27T01:39:00.836Z,1.40
2022-12-27T01:41:52.512Z,4.57
2022-12-27T01:44:57.996Z,1.58
2022-12-27T01:47:41.740Z,2.28
2022-12-27T01:50:40.565Z,3.72
2022-12-27T01:53:19.318Z,4.65
2022-12-27T01:56:12.856Z,6.35
2022-12-27T01:59:00.127Z,2.20
2022-12-27T02:01:42.437Z,2.10
2022-12-27T02:04:21.502Z,2.75
2022-12-27T02:06:48.858Z,2.20
2022-12-27T02:09:45.320Z,3.15
2022-12-27T02:12:12.319Z,3.13
2022-12-27T02:14:43.684Z,2.38
2022-12-27T02:17:16.397Z,1.65
2022-12-27T02:19:46.102Z,5.22
2022-12-27T02:22:21.603Z,2.47
2022-12-27T02:25:50.358Z,1.92
2022-12-27T02:29:00.123Z,3.38
2022-12-27T02:31:51.155Z,2.03
2022-12-27T02:34:27.399Z,2.83
2022-12-27T02:37:00.487Z,3.60
2022-12-27T02:39:29.286Z,2.10
2022-12-27T02:42:16.047Z,1.63
2022-12-27T02:45:01.311Z,2.03
2022-12-27T02:47:49.936Z,2.03
2022-12-27T02:50:36.070Z,2.85
2022-12-27T02:53:24.895Z,2.55
2022-12-27T02:56:25.436Z,2.85
2022-12-27T02:59:16.823Z,2.28
2022-12-27T03:04:59.881Z,0.70
2022-12-27T03:07:51.658Z,2.30
2022-12-27T03:10:37.083Z,1.85
2022-12-27T03:13:39.806Z,4.80
2022-12-27T03:16:24.946Z,2.65
2022-12-27T03:18:57.104Z,2.20
2022-12-27T03:22:05.289Z,2.17
2022-12-27T03:24:56.311Z,3.65
2022-12-27T03:27:35.295Z,2.08
2022-12-27T03:30:25.009Z,2.92
2022-12-27T03:33:12.942Z,1.90
2022-12-27T03:36:16.014Z,2.80
2022-12-27T03:39:13.135Z,1.00
2022-12-27T03:42:06.945Z,1.85
2022-12-27T03:44:36.063Z,4.85
2022-12-27T03:47:36.715Z,2.30
2022-12-27T03:50:18.938Z,2.00
2022-12-27T03:55:17.335Z,1.73
2022-12-27T03:57:47.217Z,2.97
2022-12-27T04:00:16.683Z,3.08
2022-12-27T04:02:45.694Z,3.20
2022-12-27T04:05:15.123Z,3.85
2022-12-27T04:08:03.092Z,4.57
2022-12-27T04:10:48.575Z,1.63
2022-12-27T04:13:38.419Z,2.35
2022-12-27T04:16:24.043Z,5.03
2022-12-27T04:19:14.367Z,2.35
2022-12-27T04:22:01.817Z,1.70
2022-12-27T04:24:47.310Z,2.75
2022-12-27T04:27:35.238Z,1.42
2022-12-27T04:30:23.338Z,2.15
2022-12-27T04:33:08.650Z,3.45
2022-12-27T04:35:35.482Z,3.13
2022-12-27T04:38:06.816Z,2.80
2022-12-27T04:40:52.001Z,4.25
2022-12-27T04:43:37.439Z,1.45
2022-12-27T04:46:22.878Z,3.15
2022-12-27T04:49:08.217Z,2.10
2022-12-27T04:51:53.619Z,0.95
2022-12-27T04:54:43.087Z,2.10
2022-12-27T04:57:12.386Z,2.65
2022-12-27T04:59:57.460Z,3.45
2022-12-27T05:02:24.357Z,3.13
2022-12-27T05:04:55.964Z,3.47
2022-12-27T05:07:41.276Z,1.90
2022-12-27T05:10:30.189Z,1.20
2022-12-27T05:13:15.573Z,2.90
2022-12-27T05:15:42.341Z,2.10
2022-12-27T05:18:09.163Z,1.58
2022-12-27T05:20:35.906Z,1.83
2022-12-27T05:23:21.042Z,2.78
2022-12-27T05:25:47.796Z,3.03
2022-12-27T05:28:16.713Z,2.22
2022-12-27T05:30:44.180Z,1.02
2022-12-27T05:33:10.966Z,1.38
2022-12-27T05:35:40.701Z,0.93
2022-12-27T05:38:07.760Z,1.73
2022-12-27T05:40:34.866Z,1.83
2022-12-27T05:43:05.343Z,2.70
2022-12-27T05:45:33.187Z,1.88
2022-12-27T05:48:00.128Z,3.20
2022-12-27T05:50:27.619Z,1.67
2022-12-27T05:52:55.418Z,1.77
2022-12-27T05:55:22.096Z,2.60
2022-12-27T05:57:48.851Z,4.30
2022-12-27T06:00:15.855Z,2.05
2022-12-27T06:02:45.374Z,2.83
2022-12-27T06:05:14.547Z,5.82
2022-12-27T06:07:41.273Z,2.42
2022-12-27T06:10:11.256Z,3.90
2022-12-27T06:12:40.386Z,4.35
2022-12-27T06:15:07.454Z,3.17
2022-12-27T06:17:34.194Z,3.10
2022-12-27T06:20:03.142Z,2.47
2022-12-27T06:22:32.017Z,4.38
2022-12-27T06:24:58.772Z,2.88
2022-12-27T06:27:27.623Z,3.53
2022-12-27T06:29:56.600Z,2.88
2022-12-27T06:32:30.653Z,4.22
2022-12-27T06:34:57.404Z,4.07
2022-12-27T06:37:26.625Z,3.55
2022-12-27T06:39:55.549Z,4.00
2022-12-27T06:42:24.369Z,3.95
2022-12-27T06:44:53.333Z,3.13
2022-12-27T06:47:22.224Z,7.35
2022-12-27T06:49:51.149Z,3.30
2022-12-27T06:52:17.931Z,3.28
2022-12-27T06:54:47.040Z,3.50
2022-12-27T06:57:16.219Z,5.15
2022-12-27T06:59:50.890Z,5.63
2022-12-27T07:02:20.622Z,2.75
2022-12-27T07:04:52.038Z,4.88
2022-12-27T07:07:18.750Z,3.55
2022-12-27T07:09:45.495Z,4.07
2022-12-27T07:12:12.251Z,4.72
2022-12-27T07:14:43.928Z,5.03
2022-12-27T07:17:10.677Z,4.15
2022-12-27T07:19:37.354Z,3.95
2022-12-27T07:22:06.270Z,4.43
2022-12-27T07:24:37.725Z,3.80
2022-12-27T07:27:06.707Z,3.10
2022-12-27T07:29:33.392Z,4.43
2022-12-27T07:32:02.719Z,2.92
2022-12-27T07:34:31.917Z,2.63
2022-12-27T07:37:03.432Z,6.72
2022-12-27T07:39:30.309Z,3.42
2022-12-27T07:42:03.337Z,4.78
2022-12-27T07:44:33.042Z,3.92
2022-12-27T07:47:04.475Z,4.28
2022-12-27T07:49:31.240Z,3.53
2022-12-27T07:52:00.434Z,6.13
2022-12-27T07:54:29.444Z,4.22
2022-12-27T07:56:56.180Z,4.28
2022-12-27T07:59:23.011Z,4.22
2022-12-27T08:02:07.244Z,5.38
2022-12-27T08:04:37.190Z,5.30
2022-12-27T08:07:15.771Z,3.38
2022-12-27T08:09:48.951Z,6.88
2022-12-27T08:12:17.942Z,4.70
2022-12-27T08:14:47.374Z,3.58
2022-12-27T08:17:27.196Z,4.25
2022-12-27T08:19:59.491Z,3.65
2022-12-27T08:22:28.398Z,5.68
2022-12-27T08:24:57.319Z,5.57
2022-12-27T08:27:25.251Z,5.32
2022-12-27T08:29:52.013Z,4.55
2022-12-27T08:32:18.788Z,7.88
2022-12-27T08:34:45.557Z,4.80
2022-12-27T08:37:16.863Z,7.25
2022-12-27T08:39:48.305Z,4.68
2022-12-27T08:42:17.517Z,9.23
2022-12-27T08:44:44.253Z,9.05
2022-12-27T08:47:10.970Z,10.35
2022-12-27T08:49:37.812Z,9.18
2022-12-27T08:52:04.870Z,7.40
2022-12-27T08:54:34.345Z,6.10
2022-12-27T08:57:03.229Z,8.13
2022-12-27T08:59:32.129Z,9.65
2022-12-27T09:02:00.998Z,5.60
2022-12-27T09:04:27.778Z,5.10
2022-12-27T09:06:54.464Z,8.48
2022-12-27T09:09:23.681Z,6.20
2022-12-27T09:11:50.404Z,8.90
2022-12-27T09:14:17.281Z,10.73
2022-12-27T09:16:44.064Z,6.38
2022-12-27T09:19:15.336Z,5.53
2022-12-27T09:21:44.781Z,4.90
2022-12-27T09:24:12.843Z,3.13
2022-12-27T09:26:40.068Z,3.20
2022-12-27T09:29:11.228Z,4.95
2022-12-27T09:31:38.078Z,4.03
2022-12-27T09:34:05.005Z,7.03
2022-12-27T09:36:34.092Z,5.55
2022-12-27T09:39:01.352Z,5.65
2022-12-27T09:44:52.270Z,5.22
2022-12-27T09:47:22.097Z,4.80
2022-12-27T09:49:53.510Z,3.00
2022-12-27T09:52:27.869Z,4.32
2022-12-27T09:55:05.388Z,4.05
2022-12-27T09:57:38.210Z,4.05
2022-12-27T10:00:16.023Z,3.00
2022-12-27T10:02:47.144Z,3.70
2022-12-27T10:05:25.754Z,3.27
2022-12-27T10:08:17.189Z,4.15
2022-12-27T10:11:38.997Z,3.90
2022-12-27T10:14:20.725Z,5.50
2022-12-27T10:16:52.509Z,4.60
2022-12-27T10:19:22.357Z,4.22
2022-12-27T10:21:54.751Z,2.17
2022-12-27T10:24:31.764Z,3.55
2022-12-27T10:26:58.647Z,5.10
2022-12-27T10:29:26.481Z,4.70
2022-12-27T10:31:53.566Z,5.70
2022-12-27T10:34:24.453Z,3.72
2022-12-27T10:36:52.990Z,3.15
2022-12-27T10:39:28.569Z,5.38
2022-12-27T10:42:35.354Z,3.60
2022-12-27T10:45:34.754Z,6.85
2022-12-27T10:48:18.520Z,5.07
2022-12-27T10:50:57.202Z,8.52
2022-12-27T10:53:29.587Z,5.22
2022-12-27T10:56:19.643Z,9.55
2022-12-27T10:58:58.765Z,7.70
2022-12-27T11:01:28.991Z,4.53
2022-12-27T11:04:22.169Z,2.85
2022-12-27T11:06:55.371Z,4.15
2022-12-27T11:09:43.396Z,3.63
2022-12-27T11:12:28.633Z,2.53
2022-12-27T11:15:21.613Z,4.95
2022-12-27T11:17:56.963Z,4.03
2022-12-27T11:20:38.139Z,2.85
2022-12-27T11:23:10.843Z,2.83
2022-12-27T11:25:54.714Z,3.58
2022-12-27T11:28:40.472Z,3.75
2022-12-27T11:31:12.952Z,2.38
2022-12-27T11:33:41.229Z,3.38
2022-12-27T11:36:15.845Z,2.45
2022-12-27T11:38:51.622Z,2.05
2022-12-27T11:41:37.259Z,2.05
2022-12-27T11:44:16.406Z,4.03
2022-12-27T11:46:58.552Z,3.33
2022-12-27T11:49:38.023Z,4.68
2022-12-27T11:52:42.579Z,2.22
2022-12-27T11:55:30.172Z,3.25
2022-12-27T11:58:31.069Z,5.18
2022-12-27T12:01:21.260Z,2.42
2022-12-27T12:03:53.772Z,2.63
2022-12-27T12:06:50.820Z,2.42
2022-12-27T12:09:29.688Z,2.80
2022-12-27T12:12:20.292Z,2.53
2022-12-27T12:14:46.936Z,2.85
2022-12-27T12:17:35.663Z,3.20
2022-12-27T12:20:06.015Z,1.63
2022-12-27T12:22:35.510Z,5.07
2022-12-27T12:25:35.438Z,2.83
2022-12-27T12:28:56.526Z,2.08
2022-12-27T12:31:29.096Z,2.08
2022-12-27T12:34:20.341Z,2.83
2022-12-27T12:36:52.258Z,2.15
2022-12-27T12:39:33.445Z,4.13
2022-12-27T12:42:17.614Z,4.00
2022-12-27T12:44:55.963Z,4.03
2022-12-27T12:47:55.356Z,5.25
2022-12-27T12:51:03.309Z,4.03
2022-12-27T12:53:50.990Z,4.35
2022-12-27T12:56:38.845Z,2.65
2022-12-27T12:59:22.014Z,3.92
2022-12-27T13:01:55.394Z,1.73
2022-12-27T13:04:43.888Z,3.53
2022-12-27T13:07:15.850Z,2.83
2022-12-27T13:10:19.916Z,3.17
2022-12-27T13:12:57.808Z,4.88
2022-12-27T13:15:52.484Z,2.20
2022-12-27T13:18:40.894Z,3.92
2022-12-27T13:21:28.754Z,2.60
2022-12-27T13:24:30.006Z,3.38
2022-12-27T13:26:59.682Z,2.97
2022-12-27T13:30:01.654Z,3.95
2022-12-27T13:32:39.063Z,2.05
2022-12-27T13:35:39.024Z,5.05
2022-12-27T13:38:18.704Z,3.42
2022-12-27T13:41:11.961Z,3.28
2022-12-27T13:44:11.645Z,3.03
2022-12-27T13:46:42.914Z,5.13
2022-12-27T13:49:30.891Z,2.50
2022-12-27T13:52:38.410Z,5.25
2022-12-27T13:55:29.407Z,3.17
2022-12-27T13:58:25.817Z,2.60
2022-12-27T14:00:58.705Z,4.20
2022-12-27T14:03:51.548Z,3.60
2022-12-27T14:06:39.677Z,1.40
2022-12-27T14:09:20.819Z,3.10
2022-12-27T14:12:42.202Z,2.85
2022-12-27T14:15:17.475Z,4.25
2022-12-27T14:18:01.799Z,3.65
2022-12-27T14:20:39.798Z,3.88
2022-12-27T14:23:33.561Z,3.08
2022-12-27T14:26:23.732Z,1.83
2022-12-27T14:29:24.421Z,3.63
2022-12-27T14:32:15.603Z,2.10
2022-12-27T14:35:29.116Z,1.95
2022-12-27T14:37:55.778Z,1.80
2022-12-27T14:40:43.673Z,1.83
2022-12-27T14:43:55.610Z,2.75
2022-12-27T14:46:44.174Z,5.03
2022-12-27T14:49:37.108Z,2.22
2022-12-27T14:52:44.460Z,2.25
2022-12-27T14:55:40.693Z,2.25
2022-12-27T14:58:36.321Z,4.45
2022-12-27T15:01:06.356Z,1.88
2022-12-27T15:03:47.792Z,5.28
2022-12-27T15:06:33.321Z,4.55
2022-12-27T15:09:37.315Z,2.28
2022-12-27T15:12:18.629Z,4.40
2022-12-27T15:15:03.077Z,5.37
2022-12-27T15:18:00.985Z,7.18
2022-12-27T15:20:56.932Z,34.60
2022-12-27T15:23:53.422Z,20.40
2022-12-27T15:26:48.007Z,34.85
2022-12-27T15:29:46.877Z,7.38
2022-12-27T15:32:23.597Z,14.88
2022-12-27T15:35:31.421Z,4.20
2022-12-27T15:38:36.211Z,4.40
2022-12-27T15:41:08.866Z,2.63
2022-12-27T15:43:38.363Z,5.75
2022-12-27T15:46:23.414Z,3.25
2022-12-27T15:49:07.863Z,8.18
2022-12-27T15:52:01.225Z,3.97
2022-12-27T15:54:48.859Z,3.85
2022-12-27T15:57:43.940Z,5.25
2022-12-27T16:00:18.895Z,5.03
2022-12-27T16:02:48.906Z,8.07
2022-12-27T16:05:25.685Z,7.03
2022-12-27T16:08:00.691Z,5.00
2022-12-27T16:10:30.390Z,7.05
2022-12-27T16:13:27.629Z,6.35
2022-12-27T16:15:57.525Z,5.80
2022-12-27T16:18:24.480Z,4.63
2022-12-27T16:20:57.225Z,5.88
2022-12-27T16:23:33.481Z,5.47
2022-12-27T16:26:21.494Z,3.35
2022-12-27T16:28:58.211Z,2.88
2022-12-27T16:31:37.958Z,3.38
2022-12-27T16:37:00.609Z,5.15
2022-12-27T16:39:54.654Z,3.15
2022-12-27T16:42:35.967Z,4.40
2022-12-27T16:45:39.878Z,3.87
2022-12-27T16:48:39.853Z,6.95
2022-12-27T16:51:09.650Z,7.38
2022-12-27T16:53:38.728Z,6.38
2022-12-27T16:56:16.293Z,6.22
2022-12-27T16:58:43.206Z,4.25
2022-12-27T17:01:18.781Z,8.40
2022-12-27T17:03:48.063Z,5.93
2022-12-27T17:06:34.297Z,3.78
2022-12-27T17:09:10.876Z,4.85
2022-12-27T17:11:46.262Z,6.45
2022-12-27T17:14:26.860Z,3.95
2022-12-27T17:17:20.742Z,4.78
2022-12-27T17:19:59.998Z,5.18
2022-12-27T17:22:34.231Z,6.65
2022-12-27T17:25:04.497Z,4.80
2022-12-27T17:27:58.681Z,4.07
2022-12-27T17:30:48.336Z,3.45
2022-12-27T17:33:36.270Z,3.70
2022-12-27T17:36:18.201Z,5.75
2022-12-27T17:39:01.352Z,9.75
2022-12-27T17:41:52.668Z,6.53
2022-12-27T17:44:40.356Z,11.30
2022-12-27T17:47:32.174Z,5.55
2022-12-27T17:50:05.477Z,2.78
2022-12-27T17:52:50.761Z,3.15
2022-12-27T17:55:42.387Z,4.55
2022-12-27T17:58:12.240Z,5.32
2022-12-27T18:00:54.895Z,4.88
2022-12-27T18:03:23.442Z,5.03
2022-12-27T18:05:54.951Z,5.57
2022-12-27T18:08:28.143Z,6.57
2022-12-27T18:11:01.909Z,4.32
2022-12-27T18:13:33.257Z,4.95
2022-12-27T18:16:07.167Z,7.53
2022-12-27T18:18:34.754Z,7.93
2022-12-27T18:21:04.191Z,4.63
2022-12-27T18:23:41.671Z,5.05
2022-12-27T18:26:17.785Z,7.88
2022-12-27T18:28:44.687Z,3.97
2022-12-27T18:31:32.008Z,4.57
2022-12-27T18:34:07.047Z,5.10
2022-12-27T18:36:39.691Z,2.80
2022-12-27T18:39:25.129Z,3.05
2022-12-27T18:41:53.335Z,6.80
2022-12-27T18:44:27.490Z,4.57
2022-12-27T18:47:04.179Z,2.88
2022-12-27T18:49:36.920Z,4.35
2022-12-27T18:52:15.072Z,4.38
2022-12-27T18:54:44.182Z,3.03
2022-12-27T18:57:36.692Z,6.50
2022-12-27T19:00:25.756Z,6.55
2022-12-27T19:02:54.370Z,5.82
2022-12-27T19:05:21.122Z,4.28
2022-12-27T19:08:16.803Z,5.57
2022-12-27T19:10:51.649Z,6.93
2022-12-27T19:13:27.136Z,5.68
2022-12-27T19:15:55.697Z,4.47
2022-12-27T19:18:29.321Z,3.45
2022-12-27T19:20:58.515Z,4.72
2022-12-27T19:23:33.522Z,5.88
2022-12-27T19:26:15.500Z,4.30
2022-12-27T19:28:43.875Z,2.35
2022-12-27T19:31:21.508Z,2.28
2022-12-27T19:34:00.572Z,4.32
2022-12-27T19:36:32.449Z,5.05
2022-12-27T19:39:01.649Z,6.57
2022-12-27T19:41:29.076Z,4.07
2022-12-27T19:43:56.464Z,3.85
2022-12-27T19:46:30.894Z,3.25
2022-12-27T19:51:47.515Z,3.10
2022-12-27T19:54:19.968Z,3.10
2022-12-27T19:56:46.951Z,4.63
2022-12-27T19:59:27.222Z,3.05
2022-12-27T20:01:54.157Z,3.95
2022-12-27T20:04:21.221Z,20.20
2022-12-27T20:06:49.147Z,13.45
2022-12-27T20:09:21.262Z,9.70
2022-12-27T20:11:52.031Z,4.95
2022-12-27T20:14:19.054Z,24.67
2022-12-27T20:16:46.900Z,17.20
2022-12-27T20:19:20.128Z,24.65
2022-12-27T20:21:51.606Z,22.30
2022-12-27T20:24:18.332Z,13.63
2022-12-27T20:26:45.221Z,21.35
2022-12-27T20:29:20.825Z,15.73
2022-12-27T20:31:50.093Z,7.32
2022-12-27T20:34:19.170Z,15.52
2022-12-27T20:36:45.974Z,8.35
2022-12-27T20:39:12.952Z,4.13
2022-12-27T20:41:39.860Z,4.82
2022-12-27T20:44:07.014Z,2.75
2022-12-27T20:46:33.985Z,3.38
2022-12-27T20:49:01.241Z,7.97
2022-12-27T20:51:31.791Z,3.75
2022-12-27T20:54:00.834Z,3.25
2022-12-27T20:56:30.058Z,2.92
2022-12-27T20:58:57.350Z,3.72
2022-12-27T21:01:28.438Z,5.38
2022-12-27T21:03:56.831Z,2.80
2022-12-27T21:06:26.654Z,6.43
2022-12-27T21:08:57.342Z,3.33
2022-12-27T21:11:27.893Z,3.47
2022-12-27T21:13:55.660Z,4.45
2022-12-27T21:16:28.316Z,2.80
2022-12-27T21:18:57.862Z,3.55
2022-12-27T21:21:29.092Z,3.20
2022-12-27T21:23:58.938Z,6.93
2022-12-27T21:26:35.522Z,4.80
2022-12-27T21:29:04.988Z,2.78
2022-12-27T21:31:35.820Z,5.22
2022-12-27T21:34:04.197Z,4.43
2022-12-27T21:36:34.310Z,5.22
2022-12-27T21:39:04.571Z,4.72
2022-12-27T21:41:37.306Z,5.70
2022-12-27T21:44:05.101Z,3.45
2022-12-27T21:46:38.480Z,4.63
2022-12-27T21:49:12.326Z,4.75
2022-12-27T21:51:43.091Z,3.55
2022-12-27T21:54:10.833Z,6.05
2022-12-27T21:56:38.036Z,2.33
2022-12-27T21:59:11.119Z,4.43
2022-12-27T22:01:51.932Z,4.28
2022-12-27T22:04:23.205Z,5.03
2022-12-27T22:06:52.253Z,2.67
2022-12-27T22:09:19.507Z,5.15
2022-12-27T22:11:49.119Z,7.03
2022-12-27T22:14:25.262Z,3.67
2022-12-27T22:16:54.845Z,4.03
2022-12-27T22:19:21.678Z,3.65
2022-12-27T22:21:48.497Z,5.15
2022-12-27T22:24:19.560Z,3.42
2022-12-27T22:26:50.212Z,4.25
2022-12-27T22:29:21.649Z,4.93
2022-12-27T22:31:50.579Z,6.28
2022-12-27T22:34:17.434Z,7.82
2022-12-27T22:36:44.427Z,8.18
2022-12-27T22:39:13.285Z,5.93
2022-12-27T22:41:40.436Z,4.05
2022-12-27T22:44:14.192Z,5.53
2022-12-27T22:47:15.598Z,4.72
2022-12-27T22:49:31.679Z,20.65
2022-12-27T22:52:00.741Z,38.92
2022-12-27T22:55:04.724Z,24.13
2022-12-27T22:57:16.331Z,8.63
2022-12-27T22:59:43.445Z,5.03
2022-12-27T23:02:10.387Z,8.70
2022-12-27T23:04:39.632Z,5.47
2022-12-27T23:07:08.625Z,5.57
2022-12-27T23:09:40.838Z,6.28
2022-12-27T23:12:09.778Z,4.35
2022-12-27T23:14:38.717Z,5.20
2022-12-27T23:17:07.934Z,6.28
2022-12-27T23:19:34.711Z,7.82
2022-12-27T23:22:06.181Z,5.38
2022-12-27T23:24:33.731Z,5.55
2022-12-27T23:27:00.498Z,3.95
2022-12-27T23:29:27.167Z,6.47
2022-12-27T23:31:55.572Z,7.30
2022-12-27T23:34:28.181Z,5.57
2022-12-27T23:36:58.262Z,5.25
2022-12-27T23:39:25.080Z,4.43
2022-12-27T23:41:54.348Z,6.20
2022-12-27T23:44:32.866Z,4.85
2022-12-27T23:47:04.436Z,4.40
2022-12-27T23:49:33.673Z,5.47
2022-12-27T23:52:00.375Z,7.88
2022-12-27T23:54:31.554Z,5.80
2022-12-27T23:57:22.088Z,5.10
2022-12-27T23:59:47.452Z,5.90
